"WATCHING THE WEATHER TO PROTECT LIFE AND PROPERTY"


THERE ARE CURRENTLY NO WATCHES NOR WARNINGS


Aviation
Satellite (InfraRed)


KFLL 221853Z 30006KT 10SM SCT050 BKN090 OVC100 24/23 A3006 RMK AO2 WSHFT 1740 RAB21E52 TSE06E10 SLP178 CB DSNT ALQDS P0005 T02440228
KMCO 221853Z 14005KT 10SM SCT045 BKN300 35/23 A3002
KMIA 221853Z 00000KT 10SM FEW030 BKN075 BKN095 OVC250 26/24 A3007 RMK AO2 RAE26 TSE03B07E25 SLP183 TS DSIPTD CB DSNT E-SE AND SW-NW P0000 T02610239
KTPA 221853Z 23008KT 10SM SCT035 BKN045 BKN250 33/24 A3002 RMK AO2 SLP165 OCNL LTGIC DSNT NW CB DSNT NW T03280244
MDPP 221900Z 09018KT 9999 SCT024 31/25 Q1015
MDSD 221900Z 01004KT 8000 TSRA FEW014CB SCT016 SCT070 25/24 Q1015 CB/NE/E/N
MKJS 221800Z 07017KT 9999 FEW024 31/26 Q1013
MTPP 221900Z 09014G24KT 060V120 9999 SCT026CB 36/20 Q1012 A2989 RMK
MUHA 221850Z 17004KT 090V250 9000 SCT033 33/24 Q1017
MYNN 221900Z 13012KT 100V160 9999 FEW015CB BKN200 33/23 A3007
TAPA 221800Z 09011KT 050V140 9999 SCT021 31/24 Q1015 NOSIG
TFFF 221900Z AUTO 12015KT 7000 SCT032 31/23 Q1014 TEMPO 4000 SHRA SCT018TCU BKN025
TFFR 221900Z AUTO 13013KT 9999 SCT039 BKN096 32/23 Q1014 NOSIG
TIST 221753Z 08011G20KT 10SM -RA FEW022 BKN050 30/24 A3000 RMK AO2 RAB02 SLP158 P0000 60000 T03000239 10311 20283 58006 $
TISX 221853Z 11014G23KT 10SM SCT025 BKN050 33/24 A2999 RMK AO2 SLP154 T03280244 $
TJSJ 221856Z 07011KT 10SM FEW029CB BKN060 BKN085 30/25 A3000 RMK AO2 SLP156 CB SE SW-W MOV W VCSH SE SW T03000250 $
TKPK 221900Z 07013KT 9999 SCT020 31/24 Q1015
TNCA 221900Z 09016KT 9999 BKN021 31/26 Q1011 NOSIG
TNCB 221855Z 11014KT 070V160 9999 FEW022 32/24 Q1011
TNCC 221800Z 09014KT 9999 FEW022 33/26 Q1012 NOSIG=
TNCE 221855Z AUTO 10012KT 060V130 //// // ///////// 31/25 Q1015 RE//
TNCM 221900Z 06010KT 040V110 9999 VCSH SCT018 32/25 Q1017 NOSIG RMK VCSH SW
TQPF 221800Z 10015KT 9999 FEW018 31/27 Q1015
TUPJ 221900Z 11007KT 10SM FEW021 30/24 A3001 RMK Q1016 VIS16KM